Salem, OR

6:27 AM PDT on October 24, 2014 (GMT -0700)
McNary | Change Station
CLOSE
Current Station
Airport
Location: Salem,
Elevation: 200 ft
Nearby Weather Stations
Active Advisory: Special Statement

Elev 200 ft 44.91 °N, 123.00 °W | Updated 31 minutes ago

Mostly Cloudy
Mostly Cloudy
50 °F
Feels Like 50 °F
N
0
Wind Variable Wind from North

Today
High -- | Low -- °F
--% Chance of Precip.
Yesterday
High -- | Low -- °F
Precip. -- in
7:39 AM 6:12 PM
New Moon, 0% visible
Pressure 29.99 in
Visibility 10.0 miles
Clouds Clear
Dew Point 47 °F
Humidity 89%
Rainfall 0.00 in
Snow Depth Not available.
UV 0 out of 12
Pollen .30 out of 12
Air Quality Not available.
Flu Activity Sporadic
METAR KSLE 241256Z AUTO 00000KT 10SM CLR 10/08 A2999 RMK AO2 SLP156 T01000083

More Conditions Fewer Conditions

Pressure 29.99 in
Visibility 10.0 miles
Clouds Clear
Dew Point 47 °F
Humidity 89%
Rainfall 0.00 in
Snow Depth Not available.
UV 0 out of 12
Pollen .30 out of 12
Air Quality Not available.
Flu Activity Sporadic
METAR KSLE 241256Z AUTO 00000KT 10SM CLR 10/08 A2999 RMK AO2 SLP156 T01000083

More Conditions Fewer Conditions

10-Day Weather Forecast

Almanac

Astronomy

Oct. 24, 2014 Rise Set
Actual Time 7:39 AM PDT 6:12 PM PDT
Civil Twilight 7:09 AM PDT 6:42 PM PDT
Nautical Twilight 6:35 AM PDT 7:16 PM PDT
Astronomical Twilight 6:01 AM PDT 7:50 PM PDT
Moon 8:25 AM PDT 6:53 PM PDT
Length of Visible Light 11h 32m
Length of Day
10h 32m
Tomorrow will be 2m 55s shorter.
New Moon, 0% of the Moon is Illuminated
Today
New Moon
Oct 30
First Quarter
Nov 6
Full
Nov 14
Last Quarter
Nov 22
New

Today's Extremes

State Highs State Lows

Community

WunderPhotos

Upload Photos

1,764,549 photos uploaded!

WunderBlogs® & News

Nearby

Snow Depth

Station Depth Elevation
Little Meadows 0 in 4000 ft
Seine Creek 0 in 2000 ft
Saddle Mountain 4 in 3250 ft
Daly Lake 0 in 3600 ft
Peavine Ridge 0 in 3500 ft

Earthquake Activity

City Distance Mag. Time & Date
No recent earthquake activity has been reported nearby.
Minimum magnitude displayed is 2.5.

Coastal Water Temperatures

Place Temperature
No Stations Reporting

Nearby Weather Stations